Time;durP1;ratioP1;P1;durP2;ratioP2;P2;SDS_P1;SDS_P2;PMS_P1;PMS_P2;Temp;Humidity;BMP_temperature;BMP_pressure;BME280_temperature;BME280_humidity;BME280_pressure;Samples;Min_cycle;Max_cycle;Signal;HPM_P1;HPM_P2
2021/12/24 00:00:20;;;;;;;1.83;1.20;;;5.00;99.90;;;;;;4999166;28;20045;-69
2021/12/24 00:02:49;;;;;;;1.80;1.35;;;4.90;99.90;;;;;;4998096;28;20065;-69
2021/12/24 00:05:16;;;;;;;3.72;1.30;;;4.80;99.90;;;;;;4998995;28;20054;-69
2021/12/24 00:07:43;;;;;;;4.25;1.80;;;4.80;99.90;;;;;;4997051;28;20054;-69
2021/12/24 00:10:10;;;;;;;;;;;4.70;99.90;;;;;;4997871;28;20042;-68
2021/12/24 00:12:42;;;;;;;2.13;1.57;;;4.70;99.90;;;;;;4997541;28;20399;-69
2021/12/24 00:16:04;;;;;;;3.28;1.42;;;4.60;99.90;;;;;;4996637;28;20049;-69
2021/12/24 00:18:04;;;;;;;4.82;1.70;;;4.60;99.90;;;;;;4987453;28;20111;-69
2021/12/24 00:21:26;;;;;;;3.42;1.60;;;4.60;99.90;;;;;;4977302;28;20043;-69
2021/12/24 00:35:05;;;;;;;3.30;1.48;;;4.50;99.90;;;;;;4978065;28;20046;-70
2021/12/24 00:37:19;;;;;;;3.13;1.15;;;4.40;99.90;;;;;;4977764;28;20042;-69
2021/12/24 00:40:21;;;;;;;3.35;1.25;;;4.40;99.90;;;;;;4975536;28;20049;-69
2021/12/24 00:42:44;;;;;;;2.05;1.05;;;4.40;99.90;;;;;;4975198;28;20065;-69
2021/12/24 00:45:13;;;;;;;2.58;1.30;;;4.50;99.90;;;;;;4978005;28;20046;-69
2021/12/24 00:47:41;;;;;;;2.53;1.10;;;4.40;99.90;;;;;;4991927;28;20623;-69
2021/12/24 00:50:12;;;;;;;1.67;1.50;;;4.40;99.90;;;;;;4988256;28;20262;-69
2021/12/24 00:52:52;;;;;;;4.32;1.40;;;4.40;99.90;;;;;;4996758;28;20049;-70
2021/12/24 00:55:22;;;;;;;3.03;1.27;;;4.40;99.90;;;;;;4993087;28;20202;-69
2021/12/24 00:57:55;;;;;;;1.83;1.35;;;4.30;99.90;;;;;;4992200;28;20048;-69
2021/12/24 01:00:24;;;;;;;3.00;1.55;;;4.30;99.90;;;;;;4975141;28;20501;-69
2021/12/24 01:02:52;;;;;;;3.25;1.33;;;4.20;99.90;;;;;;4976727;28;20046;-69
2021/12/24 01:05:22;;;;;;;2.88;1.23;;;4.20;99.90;;;;;;4977580;28;20057;-69
2021/12/24 01:07:49;;;;;;;5.30;1.92;;;4.10;99.90;;;;;;4978358;28;20505;-69
2021/12/24 01:10:27;;;;;;;4.75;1.88;;;4.10;99.90;;;;;;4991705;28;20125;-69
2021/12/24 01:12:54;;;;;;;4.60;1.35;;;4.10;99.90;;;;;;4977919;28;20057;-69
2021/12/24 01:15:21;;;;;;;1.85;1.40;;;4.00;99.90;;;;;;4991160;28;20073;-69
2021/12/24 01:20:50;;;;;;;1.30;1.20;;;3.90;99.90;;;;;;4990918;28;20080;-69
2021/12/24 01:23:38;;;;;;;4.00;1.77;;;3.90;99.90;;;;;;4977081;28;20060;-69
2021/12/24 01:26:10;;;;;;;4.60;1.35;;;3.80;99.90;;;;;;4990432;28;20046;-70
2021/12/24 01:44:54;;;;;;;5.18;2.30;;;3.60;99.90;;;;;;4990731;28;20145;-69
2021/12/24 01:47:22;;;;;;;4.45;2.03;;;3.60;99.90;;;;;;4974262;28;20047;-69
2021/12/24 01:49:49;;;;;;;5.70;2.20;;;3.60;99.90;;;;;;4984991;28;20069;-70
2021/12/24 01:52:17;;;;;;;3.88;2.13;;;3.60;99.90;;;;;;4994633;28;20140;-69
2021/12/24 01:54:48;;;;;;;3.78;2.45;;;3.60;99.90;;;;;;4979146;28;20061;-69
2021/12/24 01:57:15;;;;;;;;;;;3.50;99.90;;;;;;4975773;28;20050;-69
2021/12/24 01:59:42;;;;;;;5.43;2.05;;;3.50;99.90;;;;;;4974293;28;19932;-69
2021/12/24 02:02:09;;;;;;;;;;;3.50;99.90;;;;;;4991460;28;20085;-69
2021/12/24 02:04:36;;;;;;;5.60;2.27;;;3.50;99.90;;;;;;4976373;28;19932;-69
2021/12/24 02:07:04;;;;;;;2.97;2.00;;;3.40;99.90;;;;;;4990685;28;20509;-70
2021/12/24 02:09:31;;;;;;;2.30;1.85;;;3.40;99.90;;;;;;4975445;28;20078;-69
2021/12/24 02:11:59;;;;;;;6.45;1.98;;;3.40;99.90;;;;;;4974017;28;20053;-69
2021/12/24 02:14:34;;;;;;;3.33;1.95;;;3.40;99.90;;;;;;4974847;28;20764;-70
2021/12/24 02:30:43;;;;;;;6.05;1.92;;;3.30;99.90;;;;;;5009905;28;20542;-69
2021/12/24 02:33:10;;;;;;;2.92;1.83;;;3.30;99.90;;;;;;4993724;28;20363;-69
2021/12/24 02:35:38;;;;;;;2.60;1.80;;;3.30;99.90;;;;;;4993862;28;20046;-69
2021/12/24 02:38:05;;;;;;;4.88;1.70;;;3.30;99.90;;;;;;4994860;28;20496;-69
2021/12/24 02:40:33;;;;;;;3.10;1.85;;;3.30;99.90;;;;;;4994873;28;20069;-69
2021/12/24 02:43:01;;;;;;;5.63;1.38;;;3.30;99.90;;;;;;4995991;28;20095;-69
2021/12/24 02:45:30;;;;;;;3.05;1.77;;;3.30;99.90;;;;;;4994658;28;20038;-69
2021/12/24 02:56:09;;;;;;;2.03;1.25;;;3.20;99.90;;;;;;4995914;28;20491;-69
2021/12/24 02:58:41;;;;;;;3.35;1.50;;;3.20;99.90;;;;;;4997075;28;20160;-69
2021/12/24 03:01:10;;;;;;;1.73;1.30;;;3.20;99.90;;;;;;5012639;28;20780;-69
2021/12/24 03:03:37;;;;;;;3.67;1.10;;;3.20;99.90;;;;;;5013804;28;20530;-69
2021/12/24 03:06:05;;;;;;;1.67;1.52;;;3.10;99.90;;;;;;4997369;28;20057;-69
2021/12/24 03:08:33;;;;;;;2.03;1.20;;;3.10;99.90;;;;;;4998200;28;20049;-69
2021/12/24 03:11:00;;;;;;;1.63;1.30;;;3.10;99.90;;;;;;5013259;28;20050;-69
2021/12/24 03:13:28;;;;;;;2.53;1.55;;;3.00;99.90;;;;;;4998157;28;20126;-69
2021/12/24 03:15:57;;;;;;;1.77;1.20;;;3.00;99.90;;;;;;5012227;28;20061;-71
2021/12/24 03:18:28;;;;;;;1.17;1.08;;;3.00;99.90;;;;;;5012864;28;20046;-69
2021/12/24 03:26:48;;;;;;;1.85;1.52;;;2.90;99.90;;;;;;5013310;28;20556;-69
2021/12/24 03:29:17;;;;;;;2.65;1.60;;;2.90;99.90;;;;;;4996066;28;20107;-71
2021/12/24 03:31:44;;;;;;;3.42;2.10;;;2.90;99.90;;;;;;4996305;28;20057;-69
2021/12/24 03:34:15;;;;;;;2.38;1.30;;;2.90;99.90;;;;;;4998556;28;20400;-69
2021/12/24 03:36:42;;;;;;;3.85;1.30;;;2.90;99.90;;;;;;4996230;28;20563;-69
2021/12/24 03:39:12;;;;;;;2.25;1.35;;;2.90;99.90;;;;;;4996802;28;20065;-69
2021/12/24 03:41:39;;;;;;;16.88;6.85;;;2.90;99.90;;;;;;4995712;28;20054;-70
2021/12/24 03:44:08;;;;;;;2.63;1.38;;;2.90;99.90;;;;;;4996416;28;21084;-69
2021/12/24 03:46:51;;;;;;;5.68;1.48;;;2.90;99.90;;;;;;4997286;28;20050;-70
2021/12/24 03:52:36;;;;;;;4.65;1.00;;;3.00;99.90;;;;;;4992208;28;20101;-69
2021/12/24 03:54:55;;;;;;;3.22;1.98;;;3.00;99.90;;;;;;4991421;28;20047;-69
2021/12/24 03:57:35;;;;;;;3.25;1.40;;;3.00;99.90;;;;;;4976172;28;20085;-69
2021/12/24 04:00:21;;;;;;;4.88;1.60;;;3.00;99.90;;;;;;4978899;28;20566;-69
2021/12/24 04:02:58;;;;;;;1.90;1.23;;;3.10;99.90;;;;;;4996066;28;20054;-69
2021/12/24 04:05:54;;;;;;;1.10;1.00;;;3.10;99.90;;;;;;4988238;28;20061;-70
2021/12/24 04:08:40;;;;;;;1.92;1.08;;;3.10;99.90;;;;;;4997112;28;20609;-69
2021/12/24 04:11:34;;;;;;;3.42;1.10;;;3.10;99.90;;;;;;4991223;28;20073;-71
2021/12/24 04:14:01;;;;;;;1.45;1.20;;;3.10;99.90;;;;;;5011971;28;20567;-69
2021/12/24 04:16:28;;;;;;;4.28;1.45;;;3.10;99.90;;;;;;4994926;28;20258;-69
2021/12/24 04:26:58;;;;;;;4.75;1.33;;;3.10;99.90;;;;;;5012307;28;20057;-69
2021/12/24 04:29:27;;;;;;;1.88;1.25;;;3.10;99.90;;;;;;5028668;28;20149;-69
2021/12/24 04:32:08;;;;;;;1.55;1.17;;;3.00;99.90;;;;;;4995565;28;20104;-69
2021/12/24 04:35:14;;;;;;;2.58;1.17;;;3.00;99.90;;;;;;4995812;28;20054;-69
2021/12/24 04:51:31;;;;;;;3.25;1.30;;;2.80;99.90;;;;;;5011398;28;20447;-69
2021/12/24 05:02:53;;;;;;;3.30;1.65;;;2.80;99.90;;;;;;4973932;28;20085;-70
2021/12/24 05:05:36;;;;;;;1.02;0.80;;;2.80;99.90;;;;;;4991646;28;20475;-70
2021/12/24 05:10:37;;;;;;;1.20;1.10;;;3.00;99.90;;;;;;4990852;28;20077;-69
2021/12/24 05:13:09;;;;;;;1.50;0.98;;;3.10;99.90;;;;;;4959447;28;20048;-69
2021/12/24 05:16:06;;;;;;;0.77;0.77;;;3.20;99.90;;;;;;4976648;28;20436;-69
2021/12/24 05:22:10;;;;;;;1.73;1.08;;;3.50;99.90;;;;;;4995226;28;20187;-69
2021/12/24 05:24:39;;;;;;;2.67;0.98;;;3.60;99.90;;;;;;4994657;28;20133;-70
2021/12/24 05:27:05;;;;;;;;;;;3.70;99.90;;;;;;4995566;28;20080;-69
2021/12/24 05:29:32;;;;;;;4.15;0.85;;;3.70;99.90;;;;;;5009553;28;19925;-69
2021/12/24 05:32:00;;;;;;;6.35;1.20;;;3.80;99.90;;;;;;4994714;28;20603;-69
2021/12/24 05:34:27;;;;;;;1.95;1.00;;;3.80;99.90;;;;;;5011045;28;20091;-69
2021/12/24 05:36:55;;;;;;;1.60;0.93;;;3.80;99.90;;;;;;4995547;28;20536;-69
2021/12/24 05:39:23;;;;;;;2.20;1.10;;;3.80;99.90;;;;;;4994089;28;20038;-69
2021/12/24 05:41:51;;;;;;;2.65;1.00;;;3.90;99.90;;;;;;4994178;28;20080;-68
2021/12/24 05:44:19;;;;;;;1.27;0.80;;;3.90;99.90;;;;;;4994540;28;20375;-68
2021/12/24 05:46:52;;;;;;;1.67;0.90;;;4.00;99.90;;;;;;5009872;28;20050;-68
2021/12/24 05:49:49;;;;;;;15.88;3.88;;;4.00;99.90;;;;;;4978851;28;20087;-68
2021/12/24 05:52:35;;;;;;;1.02;0.93;;;4.00;99.90;;;;;;4995323;28;20073;-68
2021/12/24 05:55:14;;;;;;;2.28;1.38;;;4.00;99.90;;;;;;4977183;28;20417;-68
2021/12/24 05:57:40;;;;;;;;;;;4.00;99.90;;;;;;4990949;28;20157;-68
2021/12/24 06:00:09;;;;;;;2.55;1.48;;;4.00;99.90;;;;;;4974169;28;20234;-59
2021/12/24 06:02:38;;;;;;;2.03;1.00;;;3.90;99.90;;;;;;4974972;28;20124;-59
2021/12/24 06:05:06;;;;;;;1.48;1.25;;;3.90;99.90;;;;;;4977101;28;20042;-59
2021/12/24 06:07:32;;;;;;;1.27;1.08;;;3.90;99.90;;;;;;4976103;28;20081;-59
2021/12/24 06:09:59;;;;;;;;;;;3.90;99.90;;;;;;4990816;28;20528;-59
2021/12/24 06:12:26;;;;;;;2.05;1.27;;;3.90;99.90;;;;;;4975511;28;20375;-59
2021/12/24 06:15:00;;;;;;;2.90;1.45;;;3.90;99.90;;;;;;4975880;28;20050;-59
2021/12/24 06:17:27;;;;;;;1.60;1.20;;;3.90;99.90;;;;;;4977973;28;20069;-58
2021/12/24 06:19:54;;;;;;;;;;;3.90;99.90;;;;;;4990767;28;20324;-59
2021/12/24 06:22:21;;;;;;;3.80;1.52;;;3.90;99.90;;;;;;4995251;28;19921;-59
2021/12/24 06:24:47;;;;;;;;;;;3.90;99.90;;;;;;4994990;28;20587;-59
2021/12/24 06:27:14;;;;;;;1.42;1.10;;;4.00;99.90;;;;;;4996132;28;19964;-59
2021/12/24 06:29:41;;;;;;;;;;;4.00;99.90;;;;;;4996526;28;20459;-59
2021/12/24 06:32:08;;;;;;;2.65;1.13;;;4.00;99.90;;;;;;4998953;28;19929;-59
2021/12/24 06:34:35;;;;;;;1.73;1.02;;;4.00;99.90;;;;;;5000280;28;20546;-59
2021/12/24 06:37:02;;;;;;;;;;;4.00;99.90;;;;;;5000306;28;20554;-59
2021/12/24 06:39:29;;;;;;;4.03;2.08;;;4.00;99.90;;;;;;4999569;28;19952;-59
2021/12/24 06:41:56;;;;;;;;;;;4.00;99.90;;;;;;4999576;28;20050;-59
2021/12/24 06:44:22;;;;;;;8.52;3.15;;;4.00;99.90;;;;;;4999102;28;19991;-59
2021/12/24 06:46:49;;;;;;;;;;;4.00;99.90;;;;;;4998206;28;20093;-59
2021/12/24 06:49:16;;;;;;;3.67;2.35;;;4.00;99.90;;;;;;4992532;28;19925;-59
2021/12/24 06:51:44;;;;;;;4.22;1.77;;;3.90;99.90;;;;;;4998267;28;20050;-59
2021/12/24 06:54:11;;;;;;;2.15;1.30;;;3.90;99.90;;;;;;4972532;28;20046;-59
2021/12/24 06:56:43;;;;;;;2.47;1.73;;;4.00;99.90;;;;;;4979263;28;20595;-59
2021/12/24 06:59:10;;;;;;;1.80;1.23;;;4.00;99.90;;;;;;4976230;28;20269;-59
2021/12/24 07:01:37;;;;;;;2.08;1.27;;;4.00;99.90;;;;;;4978954;28;20065;-59
2021/12/24 07:04:07;;;;;;;2.30;0.85;;;4.00;99.90;;;;;;4993578;28;20042;-59
2021/12/24 07:06:35;;;;;;;2.60;1.15;;;4.00;99.90;;;;;;4978642;28;20128;-59
2021/12/24 07:09:02;;;;;;;2.35;1.25;;;4.00;99.90;;;;;;4978226;28;20046;-59
2021/12/24 07:11:28;;;;;;;;;;;4.00;99.90;;;;;;4979337;28;20081;-60
2021/12/24 07:13:55;;;;;;;3.72;1.35;;;4.00;99.90;;;;;;4977498;28;19929;-60
2021/12/24 07:16:22;;;;;;;2.00;1.30;;;4.00;99.90;;;;;;4980044;28;20065;-59
2021/12/24 07:18:49;;;;;;;;;;;4.10;99.90;;;;;;5001112;28;20052;-59
2021/12/24 07:21:15;;;;;;;2.88;1.63;;;4.10;99.90;;;;;;5012662;28;19932;-59
2021/12/24 07:23:42;;;;;;;;;;;4.10;99.90;;;;;;4998997;28;20293;-59
2021/12/24 07:26:09;;;;;;;2.60;1.58;;;4.20;99.90;;;;;;4998179;28;19933;-59
2021/12/24 07:28:36;;;;;;;1.50;1.23;;;4.30;99.90;;;;;;4998477;28;20038;-58
2021/12/24 07:31:02;;;;;;;;;;;4.30;99.90;;;;;;4999410;28;20405;-58
2021/12/24 07:33:29;;;;;;;2.95;1.30;;;4.30;99.90;;;;;;4998656;28;20154;-57
2021/12/24 07:35:56;;;;;;;;;;;4.40;99.90;;;;;;4998198;28;20046;-57
2021/12/24 07:38:23;;;;;;;2.50;1.27;;;4.40;99.90;;;;;;4996579;28;19983;-58
2021/12/24 07:40:50;;;;;;;2.55;1.58;;;4.50;99.90;;;;;;4997440;28;20089;-58
2021/12/24 07:43:17;;;;;;;1.98;1.25;;;4.50;99.90;;;;;;4997718;28;20523;-59
2021/12/24 07:45:45;;;;;;;;;;;4.50;99.90;;;;;;4999298;28;20049;-58
2021/12/24 07:48:15;;;;;;;2.83;1.58;;;4.60;99.90;;;;;;4998051;28;19960;-58
2021/12/24 07:53:15;;;;;;;4.45;1.90;;;4.80;99.90;;;;;;4979244;28;20555;-58
2021/12/24 07:55:42;;;;;;;7.18;1.73;;;4.90;99.90;;;;;;4997752;28;20053;-58
2021/12/24 07:58:10;;;;;;;3.97;1.90;;;5.10;99.90;;;;;;4997316;28;20050;-58
2021/12/24 08:00:39;;;;;;;2.03;1.10;;;5.10;99.90;;;;;;4996532;28;20049;-57
2021/12/24 08:03:07;;;;;;;3.83;1.65;;;5.30;99.90;;;;;;5012787;28;20301;-58
2021/12/24 08:05:39;;;;;;;2.75;1.60;;;5.30;99.90;;;;;;4996674;28;20077;-58
2021/12/24 08:08:07;;;;;;;2.72;1.25;;;5.40;99.90;;;;;;4997516;28;20420;-60
2021/12/24 08:10:34;;;;;;;3.38;1.23;;;5.40;99.90;;;;;;4996801;28;20437;-57
2021/12/24 08:13:02;;;;;;;3.15;1.30;;;5.50;99.90;;;;;;4996575;28;20045;-56
2021/12/24 08:15:29;;;;;;;2.35;1.45;;;5.60;99.90;;;;;;4997786;28;20613;-57
2021/12/24 08:17:56;;;;;;;3.85;1.65;;;5.60;99.90;;;;;;4994816;28;20481;-57
2021/12/24 08:20:25;;;;;;;4.70;1.73;;;5.70;99.90;;;;;;4996335;28;20739;-57
2021/12/24 08:22:53;;;;;;;2.10;1.60;;;5.70;99.90;;;;;;4996732;28;20049;-58
2021/12/24 08:25:21;;;;;;;2.08;1.45;;;5.70;99.90;;;;;;4996364;28;20360;-57
2021/12/24 08:27:48;;;;;;;7.55;1.40;;;5.80;99.90;;;;;;5011494;28;20053;-58
2021/12/24 08:30:15;;;;;;;1.25;1.00;;;5.80;99.90;;;;;;4996252;28;20070;-58
2021/12/24 08:32:42;;;;;;;4.97;1.70;;;5.80;99.90;;;;;;4996312;28;20581;-58
2021/12/24 08:35:17;;;;;;;3.00;1.35;;;5.80;99.90;;;;;;4995809;28;20057;-57
2021/12/24 08:37:44;;;;;;;2.35;1.30;;;5.90;99.90;;;;;;4996450;28;20037;-57
2021/12/24 08:40:12;;;;;;;4.00;1.70;;;5.90;99.90;;;;;;4994047;28;20076;-57
2021/12/24 08:42:39;;;;;;;2.30;1.15;;;6.00;99.90;;;;;;4996525;28;20038;-57
2021/12/24 08:45:06;;;;;;;;;;;6.00;99.90;;;;;;4997065;28;20063;-57
2021/12/24 08:47:33;;;;;;;2.60;1.27;;;6.10;99.90;;;;;;4996769;28;19932;-58
2021/12/24 08:50:00;;;;;;;1.40;1.15;;;6.10;99.90;;;;;;4984454;28;20080;-56
2021/12/24 08:52:26;;;;;;;;;;;6.10;99.90;;;;;;4977679;28;20050;-57
2021/12/24 08:54:53;;;;;;;1.58;0.73;;;6.10;99.90;;;;;;4991099;28;19980;-56
2021/12/24 08:57:20;;;;;;;;;;;6.10;99.90;;;;;;4996997;28;20353;-57
2021/12/24 08:59:47;;;;;;;1.35;0.98;;;6.10;99.90;;;;;;4996183;28;19964;-57
2021/12/24 09:02:16;;;;;;;1.17;0.95;;;6.10;99.90;;;;;;4996448;28;20053;-57
2021/12/24 09:04:43;;;;;;;1.00;0.90;;;6.20;99.90;;;;;;4996970;28;20084;-58
2021/12/24 09:07:10;;;;;;;;;;;6.20;99.90;;;;;;4998087;28;20084;-58
2021/12/24 09:09:37;;;;;;;1.95;0.90;;;6.20;99.90;;;;;;4997226;28;19925;-58
2021/12/24 09:12:04;;;;;;;;;;;6.30;99.90;;;;;;4996414;28;20389;-57
2021/12/24 09:14:31;;;;;;;1.67;1.00;;;6.30;99.90;;;;;;5011923;28;20703;-57
2021/12/24 09:17:00;;;;;;;;;;;6.30;99.90;;;;;;4994446;28;20120;-55
2021/12/24 09:19:28;;;;;;;2.60;1.38;;;6.40;99.90;;;;;;5009499;28;19925;-56
2021/12/24 09:21:57;;;;;;;3.22;1.20;;;6.40;99.90;;;;;;4995767;28;20057;-56
2021/12/24 09:24:27;;;;;;;4.18;1.10;;;6.40;99.90;;;;;;5009938;28;20535;-56
2021/12/24 09:26:56;;;;;;;2.60;1.40;;;6.50;99.90;;;;;;4995509;28;20057;-58
2021/12/24 09:29:24;;;;;;;1.42;1.00;;;6.50;99.90;;;;;;4994986;28;20050;-57
2021/12/24 09:31:51;;;;;;;1.58;1.08;;;6.60;99.90;;;;;;4995604;28;20053;-57
2021/12/24 09:34:18;;;;;;;1.00;0.80;;;6.60;99.90;;;;;;4995737;28;20547;-58
2021/12/24 09:36:45;;;;;;;;;;;6.70;99.90;;;;;;4995681;28;20046;-57
2021/12/24 09:39:13;;;;;;;1.13;0.70;;;6.80;99.90;;;;;;4995521;28;20035;-57
2021/12/24 09:41:40;;;;;;;1.38;0.80;;;6.80;99.90;;;;;;5005977;28;20050;-57
2021/12/24 09:44:07;;;;;;;;;;;6.80;99.90;;;;;;4977112;28;20140;-59
2021/12/24 09:46:35;;;;;;;4.10;0.60;;;6.80;99.90;;;;;;4975612;28;19926;-58
2021/12/24 09:49:03;;;;;;;2.60;1.02;;;6.80;99.90;;;;;;4975797;28;20046;-59
2021/12/24 09:51:37;;;;;;;1.60;1.13;;;6.90;99.90;;;;;;4978527;28;20042;-59
2021/12/24 09:54:16;;;;;;;1.48;1.02;;;6.90;99.90;;;;;;4983501;28;20535;-58
2021/12/24 09:56:44;;;;;;;2.63;0.90;;;6.90;99.90;;;;;;4995346;28;20045;-56
2021/12/24 09:59:11;;;;;;;0.55;0.55;;;6.90;99.90;;;;;;4995448;28;20073;-56
2021/12/24 10:01:44;;;;;;;0.70;0.68;;;7.00;99.90;;;;;;4995766;28;20121;-58
2021/12/24 10:04:18;;;;;;;1.67;0.57;;;7.00;99.90;;;;;;4995623;28;20053;-58
2021/12/24 10:06:56;;;;;;;0.60;0.60;;;7.10;99.90;;;;;;4999351;28;20111;-55
2021/12/24 10:09:30;;;;;;;1.92;0.70;;;7.20;99.90;;;;;;4997831;28;20080;-59
2021/12/24 10:12:00;;;;;;;0.63;0.57;;;7.20;99.90;;;;;;5000158;28;20412;-58
2021/12/24 10:14:37;;;;;;;1.05;0.80;;;7.30;99.90;;;;;;4999277;28;20056;-58
2021/12/24 10:17:14;;;;;;;1.75;0.75;;;7.20;99.90;;;;;;4993521;28;20038;-58
2021/12/24 10:19:53;;;;;;;1.60;1.17;;;7.10;99.90;;;;;;4992020;28;20038;-58
2021/12/24 10:22:45;;;;;;;3.72;0.85;;;7.10;99.90;;;;;;4998919;28;20434;-56
2021/12/24 10:25:13;;;;;;;0.77;0.65;;;7.00;99.90;;;;;;4998380;28;20056;-56
2021/12/24 10:27:42;;;;;;;1.13;0.70;;;7.00;99.90;;;;;;5000040;28;20050;-64
2021/12/24 10:30:19;;;;;;;0.90;0.70;;;7.10;99.90;;;;;;4983806;28;20050;-57
2021/12/24 10:32:45;;;;;;;1.15;0.80;;;7.10;99.90;;;;;;4984588;28;20046;-57
2021/12/24 10:35:18;;;;;;;;;;;7.00;99.90;;;;;;4982471;28;20529;-58
2021/12/24 10:37:45;;;;;;;1.90;0.70;;;7.00;99.90;;;;;;4980676;28;19926;-57
2021/12/24 10:40:12;;;;;;;;;;;6.90;99.90;;;;;;4993998;28;20069;-58
2021/12/24 10:42:42;;;;;;;1.97;1.30;;;6.90;99.90;;;;;;4998496;28;19933;-57
2021/12/24 10:45:20;;;;;;;1.35;0.80;;;6.80;99.90;;;;;;4999007;28;20248;-61
2021/12/24 10:47:47;;;;;;;0.80;0.80;;;6.70;99.90;;;;;;4998288;28;20042;-58
2021/12/24 10:53:12;;;;;;;1.05;0.95;;;6.70;99.90;;;;;;4998353;28;20286;-58
2021/12/24 10:55:46;;;;;;;1.88;1.25;;;6.70;99.90;;;;;;4999404;28;20528;-58
2021/12/24 10:58:16;;;;;;;1.33;1.20;;;6.70;99.90;;;;;;4998254;28;20045;-58
2021/12/24 11:00:51;;;;;;;2.72;1.60;;;6.60;99.90;;;;;;4998367;28;20103;-58
2021/12/24 11:03:32;;;;;;;3.38;1.83;;;6.60;99.90;;;;;;4998700;28;20281;-58
2021/12/24 11:06:08;;;;;;;4.80;1.63;;;6.60;99.90;;;;;;4998346;28;20137;-59
2021/12/24 11:08:37;;;;;;;4.20;2.20;;;6.50;99.90;;;;;;4999367;28;20153;-59
2021/12/24 11:11:06;;;;;;;6.28;2.20;;;6.50;99.90;;;;;;4998083;28;20583;-59
2021/12/24 11:13:39;;;;;;;4.35;2.58;;;6.40;99.90;;;;;;4998726;28;20069;-58
2021/12/24 11:16:14;;;;;;;7.72;2.47;;;6.40;99.90;;;;;;4997416;28;20578;-58
2021/12/24 11:18:46;;;;;;;7.97;3.15;;;6.40;99.90;;;;;;4997936;28;20034;-58
2021/12/24 11:21:20;;;;;;;2.42;1.88;;;6.30;99.90;;;;;;4998112;28;20038;-59
2021/12/24 11:23:48;;;;;;;2.88;1.90;;;6.30;99.90;;;;;;4998790;28;20104;-58
2021/12/24 11:26:16;;;;;;;3.95;1.63;;;6.30;99.90;;;;;;4998728;28;20042;-58
2021/12/24 11:28:44;;;;;;;3.30;1.15;;;6.30;99.90;;;;;;4998032;28;20045;-56
2021/12/24 11:31:21;;;;;;;3.63;2.38;;;6.30;99.90;;;;;;4998395;28;20503;-57
2021/12/24 11:33:51;;;;;;;2.87;2.10;;;6.40;99.90;;;;;;4997980;28;20520;-56
2021/12/24 11:36:21;;;;;;;2.05;1.55;;;6.40;99.90;;;;;;4999151;28;20519;-59
2021/12/24 11:38:51;;;;;;;2.13;1.38;;;6.30;99.90;;;;;;4998139;28;20057;-59
2021/12/24 11:41:21;;;;;;;3.10;1.10;;;6.30;99.90;;;;;;4997799;28;20495;-59
2021/12/24 11:43:50;;;;;;;1.00;0.90;;;6.40;99.90;;;;;;4998223;28;20428;-59
2021/12/24 11:46:19;;;;;;;4.07;1.70;;;6.50;99.90;;;;;;4998217;28;20053;-59
2021/12/24 11:48:48;;;;;;;9.55;1.85;;;6.60;99.90;;;;;;4993174;28;20050;-58
2021/12/24 11:51:22;;;;;;;1.25;1.05;;;6.70;99.90;;;;;;4996690;28;20046;-58
2021/12/24 11:53:52;;;;;;;1.23;0.95;;;6.80;99.90;;;;;;4992912;28;20054;-59
2021/12/24 11:56:22;;;;;;;2.72;1.00;;;6.90;99.90;;;;;;4977406;28;20413;-58
2021/12/24 11:58:52;;;;;;;1.45;1.08;;;6.80;99.90;;;;;;4978365;28;20042;-58
2021/12/24 12:01:21;;;;;;;1.38;1.00;;;6.80;99.90;;;;;;4978347;28;20336;-59
2021/12/24 12:03:51;;;;;;;3.95;0.88;;;6.80;99.90;;;;;;4978799;28;20161;-59
2021/12/24 12:06:24;;;;;;;1.85;1.30;;;6.80;99.90;;;;;;4978098;28;20511;-59
2021/12/24 12:08:52;;;;;;;3.47;1.00;;;6.80;99.90;;;;;;4977876;28;20046;-60
2021/12/24 12:11:26;;;;;;;1.52;1.10;;;6.70;99.90;;;;;;4977807;28;20590;-60
2021/12/24 12:14:02;;;;;;;2.03;1.00;;;6.70;99.90;;;;;;4978246;28;20073;-60
2021/12/24 12:16:41;;;;;;;1.60;1.13;;;6.60;99.90;;;;;;4980205;28;20042;-60
2021/12/24 12:19:22;;;;;;;2.17;1.77;;;6.60;99.90;;;;;;4985159;28;20046;-59
2021/12/24 12:22:18;;;;;;;2.45;1.00;;;6.60;99.90;;;;;;4998594;28;20060;-59
2021/12/24 12:24:59;;;;;;;2.40;1.20;;;6.50;99.90;;;;;;4997540;28;20049;-60
2021/12/24 12:27:30;;;;;;;1.77;1.20;;;6.40;99.90;;;;;;4997280;28;20049;-60
2021/12/24 12:29:56;;;;;;;1.23;1.10;;;6.40;99.90;;;;;;4995453;28;20050;-59
2021/12/24 12:32:25;;;;;;;;;;;6.40;99.90;;;;;;4997558;28;20077;-60
2021/12/24 12:34:59;;;;;;;4.43;1.77;;;6.40;99.90;;;;;;4995650;28;20266;-59
2021/12/24 12:37:46;;;;;;;2.00;1.13;;;6.30;99.90;;;;;;4996640;28;20038;-59
2021/12/24 12:40:16;;;;;;;5.43;1.73;;;6.30;99.90;;;;;;4996227;28;20068;-59
2021/12/24 12:42:52;;;;;;;4.25;1.63;;;6.30;99.90;;;;;;4997428;28;20099;-60
2021/12/24 12:45:22;;;;;;;4.25;1.77;;;6.30;99.90;;;;;;4997407;28;20053;-59
2021/12/24 12:47:58;;;;;;;11.05;2.22;;;6.40;99.90;;;;;;4996664;28;20050;-59
2021/12/24 12:50:27;;;;;;;5.15;2.03;;;6.50;99.90;;;;;;4995687;28;20081;-60
2021/12/24 12:53:33;;;;;;;6.18;1.80;;;6.50;99.90;;;;;;4995909;28;20112;-60
2021/12/24 12:56:17;;;;;;;1.60;1.10;;;6.50;99.90;;;;;;4995048;28;20119;-59
2021/12/24 12:58:57;;;;;;;2.15;1.05;;;6.50;99.90;;;;;;4995076;28;20133;-59
2021/12/24 13:01:24;;;;;;;3.13;0.95;;;6.50;99.90;;;;;;4996348;28;20775;-59
2021/12/24 13:03:58;;;;;;;7.45;1.80;;;6.50;99.90;;;;;;4995459;28;21019;-59
2021/12/24 13:06:46;;;;;;;1.13;0.98;;;6.50;99.90;;;;;;4992837;28;20034;-60
2021/12/24 13:09:19;;;;;;;2.63;1.10;;;6.50;99.90;;;;;;4992061;28;20054;-59
2021/12/24 13:11:49;;;;;;;3.00;1.50;;;6.50;99.90;;;;;;4992955;28;20048;-63
2021/12/24 13:14:17;;;;;;;2.15;1.00;;;6.50;99.90;;;;;;4994784;28;20056;-59
2021/12/24 13:16:52;;;;;;;1.80;1.08;;;6.50;99.90;;;;;;4995845;28;20042;-59
2021/12/24 13:25:02;;;;;;;5.60;2.47;;;6.50;99.90;;;;;;4995471;28;20053;-59
2021/12/24 13:27:33;;;;;;;3.22;1.63;;;6.50;99.90;;;;;;4994651;28;20045;-59
2021/12/24 13:30:06;;;;;;;3.00;1.67;;;6.50;99.90;;;;;;4995583;28;20283;-58
2021/12/24 13:32:49;;;;;;;3.08;1.30;;;6.40;99.90;;;;;;4995751;28;20053;-61
2021/12/24 13:35:28;;;;;;;1.30;1.10;;;6.40;99.90;;;;;;4985186;28;20054;-59
2021/12/24 13:37:56;;;;;;;2.75;1.60;;;6.40;99.90;;;;;;4987336;28;20100;-59
2021/12/24 13:40:32;;;;;;;3.30;1.63;;;6.30;99.90;;;;;;4994105;28;20742;-59
2021/12/24 13:43:06;;;;;;;2.58;1.45;;;6.30;99.90;;;;;;5009057;28;20112;-58
2021/12/24 13:45:37;;;;;;;1.73;1.27;;;6.30;99.90;;;;;;4991264;28;20523;-58
2021/12/24 13:48:16;;;;;;;1.95;1.10;;;6.20;99.90;;;;;;4976427;28;20054;-58
2021/12/24 13:56:37;;;;;;;1.23;1.08;;;6.10;99.90;;;;;;4991126;28;20056;-59
2021/12/24 13:59:05;;;;;;;4.00;1.10;;;6.10;99.90;;;;;;5008256;28;20459;-59
2021/12/24 14:01:34;;;;;;;2.25;1.17;;;6.00;99.90;;;;;;4995570;28;20389;-59
2021/12/24 14:04:04;;;;;;;3.80;1.20;;;6.00;99.90;;;;;;4979152;28;20519;-61
2021/12/24 14:06:38;;;;;;;3.40;1.23;;;5.90;99.90;;;;;;5000839;28;20096;-60
2021/12/24 14:09:17;;;;;;;2.78;1.23;;;5.80;99.90;;;;;;4995996;28;20046;-60
2021/12/24 14:11:47;;;;;;;4.38;2.15;;;5.80;99.90;;;;;;4997949;28;20050;-60
2021/12/24 14:14:23;;;;;;;2.10;1.30;;;5.70;99.90;;;;;;5000579;28;20057;-60
2021/12/24 14:17:04;;;;;;;4.33;1.40;;;5.70;99.90;;;;;;4997043;28;20050;-60
2021/12/24 14:19:49;;;;;;;2.40;1.38;;;5.70;99.90;;;;;;4994559;28;20046;-60
2021/12/24 14:22:17;;;;;;;2.35;1.40;;;5.60;99.90;;;;;;5001031;28;20056;-60
2021/12/24 14:24:58;;;;;;;2.72;1.83;;;5.60;99.90;;;;;;4998520;28;20405;-60
2021/12/24 14:27:28;;;;;;;3.20;1.63;;;5.60;99.90;;;;;;4999607;28;20088;-62
2021/12/24 14:30:04;;;;;;;2.60;2.08;;;5.50;99.90;;;;;;4998850;28;20096;-62
2021/12/24 14:32:35;;;;;;;2.25;1.35;;;5.50;99.90;;;;;;4999651;28;20121;-62
2021/12/24 14:35:19;;;;;;;4.15;1.52;;;5.40;99.90;;;;;;4999763;28;20100;-62
2021/12/24 14:38:01;;;;;;;3.80;0.98;;;5.30;99.90;;;;;;5000302;28;20092;-62
2021/12/24 14:40:30;;;;;;;1.48;0.95;;;5.30;99.90;;;;;;4998843;28;20069;-62
2021/12/24 14:42:58;;;;;;;11.18;4.45;;;5.20;99.90;;;;;;4999744;28;20038;-62
2021/12/24 14:45:34;;;;;;;3.40;1.20;;;5.20;99.90;;;;;;4999403;28;20092;-60
2021/12/24 14:48:15;;;;;;;4.60;1.73;;;5.20;99.90;;;;;;4994018;28;20496;-60
2021/12/24 14:50:51;;;;;;;1.65;1.13;;;5.20;99.90;;;;;;4989837;28;20037;-58
2021/12/24 14:53:26;;;;;;;3.10;1.10;;;5.30;99.90;;;;;;4998300;28;20042;-61
2021/12/24 14:55:58;;;;;;;2.25;1.23;;;5.30;99.90;;;;;;4993713;28;20756;-72
2021/12/24 14:58:39;;;;;;;3.03;1.33;;;5.30;99.90;;;;;;4994300;28;20431;-67
2021/12/24 15:01:17;;;;;;;1.80;1.48;;;5.30;99.90;;;;;;4998032;28;20096;-69
2021/12/24 15:03:47;;;;;;;1.10;1.00;;;5.30;99.90;;;;;;4997417;28;20771;-69
2021/12/24 15:06:16;;;;;;;1.35;1.02;;;5.30;99.90;;;;;;4998506;28;20487;-69
2021/12/24 15:08:44;;;;;;;2.30;1.55;;;5.40;99.90;;;;;;4998374;28;20046;-68
2021/12/24 15:11:20;;;;;;;7.78;2.28;;;5.40;99.90;;;;;;4996789;28;20054;-69
2021/12/24 15:13:57;;;;;;;5.25;1.40;;;5.40;99.90;;;;;;4994884;28;20575;-68
2021/12/24 15:16:33;;;;;;;1.73;0.98;;;5.40;99.90;;;;;;4995720;28;20105;-72
2021/12/24 15:19:02;;;;;;;2.28;1.27;;;5.40;99.90;;;;;;4985316;28;20037;-71
2021/12/24 15:21:32;;;;;;;2.95;1.30;;;5.50;99.90;;;;;;4993993;28;20048;-71